createdAt,value
2023-06-16T00:01:16.437Z,7.27
2023-06-16T00:03:51.239Z,7.27
2023-06-16T00:06:20.850Z,7.03
2023-06-16T00:08:52.810Z,7.07
2023-06-16T00:11:21.077Z,7.20
2023-06-16T00:13:50.680Z,7.37
2023-06-16T00:16:20.558Z,7.50
2023-06-16T00:18:50.722Z,7.50
2023-06-16T00:21:24.952Z,7.30
2023-06-16T00:23:54.507Z,11.13
2023-06-16T00:26:22.949Z,6.77
2023-06-16T00:28:51.181Z,8.73
2023-06-16T00:31:19.234Z,7.57
2023-06-16T00:33:47.262Z,7.90
2023-06-16T00:36:17.667Z,6.93
2023-06-16T00:38:45.805Z,7.73
2023-06-16T00:41:15.811Z,8.93
2023-06-16T00:43:44.832Z,7.87
2023-06-16T00:46:20.776Z,7.50
2023-06-16T00:48:48.843Z,7.33
2023-06-16T00:51:17.172Z,8.10
2023-06-16T00:53:45.302Z,7.97
2023-06-16T00:56:13.673Z,7.77
2023-06-16T00:58:43.089Z,7.57
2023-06-16T01:01:13.739Z,7.83
2023-06-16T01:03:42.209Z,8.07
2023-06-16T01:06:21.738Z,8.60
2023-06-16T01:08:58.583Z,9.03
2023-06-16T01:11:39.545Z,8.00
2023-06-16T01:14:17.501Z,8.40
2023-06-16T01:16:49.036Z,7.90
2023-06-16T01:19:29.686Z,10.33
2023-06-16T01:22:08.517Z,8.53
2023-06-16T01:24:38.745Z,8.73
2023-06-16T01:27:10.001Z,9.30
2023-06-16T01:29:39.190Z,8.50
2023-06-16T01:32:09.602Z,8.20
2023-06-16T01:34:38.136Z,8.87
2023-06-16T01:37:07.633Z,8.57
2023-06-16T01:39:38.041Z,9.43
2023-06-16T01:42:07.069Z,8.90
2023-06-16T01:44:36.427Z,8.47
2023-06-16T01:47:04.571Z,8.93
2023-06-16T01:49:34.265Z,9.07
2023-06-16T01:52:02.884Z,8.83
2023-06-16T01:54:30.889Z,9.50
2023-06-16T01:57:00.301Z,9.13
2023-06-16T01:59:28.312Z,9.97
2023-06-16T02:02:02.409Z,10.33
2023-06-16T02:04:34.238Z,9.60
2023-06-16T02:07:07.933Z,9.20
2023-06-16T02:09:37.792Z,9.80
2023-06-16T02:12:10.524Z,11.13
2023-06-16T02:14:39.527Z,9.20
2023-06-16T02:17:10.693Z,9.37
2023-06-16T02:19:39.416Z,9.57
2023-06-16T02:22:07.888Z,10.53
2023-06-16T02:24:37.249Z,10.63
2023-06-16T02:27:07.559Z,9.53
2023-06-16T02:29:35.606Z,10.03
2023-06-16T02:32:03.727Z,10.73
2023-06-16T02:34:31.722Z,11.17
2023-06-16T02:37:01.483Z,9.37
2023-06-16T02:39:29.481Z,10.50
2023-06-16T02:41:57.520Z,11.27
2023-06-16T02:44:26.901Z,11.10
2023-06-16T02:46:55.597Z,11.27
2023-06-16T02:49:23.877Z,10.43
2023-06-16T02:51:52.004Z,10.90
2023-06-16T02:54:20.099Z,10.30
2023-06-16T02:56:48.170Z,9.30
2023-06-16T02:59:16.852Z,10.30
2023-06-16T03:01:46.289Z,9.60
2023-06-16T03:04:23.712Z,10.87
2023-06-16T03:06:58.485Z,10.20
2023-06-16T03:09:33.862Z,10.53
2023-06-16T03:12:02.822Z,10.83
2023-06-16T03:14:34.196Z,11.03
2023-06-16T03:17:14.904Z,9.90
2023-06-16T03:19:43.269Z,11.27
2023-06-16T03:22:12.320Z,10.90
2023-06-16T03:24:44.633Z,11.37
2023-06-16T03:27:13.554Z,10.43
2023-06-16T03:29:48.906Z,11.10
2023-06-16T03:32:18.356Z,11.07
2023-06-16T03:34:47.358Z,11.10
2023-06-16T03:37:15.449Z,11.63
2023-06-16T03:39:43.436Z,10.80
2023-06-16T03:42:11.719Z,10.37
2023-06-16T03:44:39.797Z,9.83
2023-06-16T03:47:08.484Z,11.63
2023-06-16T03:49:37.850Z,11.73
2023-06-16T03:52:06.688Z,12.23
2023-06-16T03:54:34.722Z,12.80
2023-06-16T03:57:04.798Z,13.00
2023-06-16T03:59:33.331Z,11.23
2023-06-16T04:02:07.630Z,11.93
2023-06-16T04:04:39.056Z,10.80
2023-06-16T04:07:08.780Z,10.90
2023-06-16T04:09:37.069Z,11.80
2023-06-16T04:12:05.893Z,13.27
2023-06-16T04:14:36.536Z,12.73
2023-06-16T04:17:05.656Z,13.13
2023-06-16T04:19:34.052Z,12.53
2023-06-16T04:22:05.045Z,13.60
2023-06-16T04:24:44.946Z,11.50
2023-06-16T04:27:13.438Z,12.77
2023-06-16T04:29:43.833Z,14.27
2023-06-16T04:32:15.184Z,15.57
2023-06-16T04:34:46.265Z,13.27
2023-06-16T04:37:17.848Z,13.37
2023-06-16T04:39:45.915Z,13.10
2023-06-16T04:42:19.513Z,14.33
2023-06-16T04:44:48.731Z,14.57
2023-06-16T04:47:18.660Z,14.10
2023-06-16T04:49:47.608Z,17.07
2023-06-16T04:52:17.095Z,15.10
2023-06-16T04:54:45.203Z,15.80
2023-06-16T04:57:13.209Z,14.43
2023-06-16T04:59:41.227Z,17.97
2023-06-16T05:02:09.565Z,15.37
2023-06-16T05:04:39.069Z,17.70
2023-06-16T05:07:07.683Z,15.73
2023-06-16T05:09:37.037Z,15.33
2023-06-16T05:12:06.860Z,16.63
2023-06-16T05:14:35.175Z,15.37
2023-06-16T05:17:03.360Z,15.57
2023-06-16T05:19:33.074Z,16.27
2023-06-16T05:22:01.125Z,15.80
2023-06-16T05:24:31.665Z,14.67
2023-06-16T05:27:02.537Z,16.20
2023-06-16T05:29:30.912Z,16.70
2023-06-16T05:32:00.280Z,15.37
2023-06-16T05:34:28.749Z,15.20
2023-06-16T05:36:56.731Z,14.20
2023-06-16T05:39:27.535Z,13.73
2023-06-16T05:41:55.556Z,15.90
2023-06-16T05:44:25.299Z,15.23
2023-06-16T05:46:53.294Z,14.40
2023-06-16T05:49:22.466Z,14.67
2023-06-16T05:51:52.776Z,15.13
2023-06-16T05:54:20.811Z,14.40
2023-06-16T05:56:48.934Z,14.03
2023-06-16T05:59:16.997Z,14.33
2023-06-16T06:01:46.422Z,13.37
2023-06-16T06:04:14.745Z,12.27
2023-06-16T06:06:42.814Z,13.13
2023-06-16T06:09:11.056Z,13.37
2023-06-16T06:11:39.157Z,12.83
2023-06-16T06:14:07.480Z,13.40
2023-06-16T06:16:35.804Z,12.53
2023-06-16T06:19:05.141Z,12.83
2023-06-16T06:21:33.588Z,13.43
2023-06-16T06:24:02.192Z,13.60
2023-06-16T06:26:30.448Z,12.97
2023-06-16T06:28:58.451Z,13.00
2023-06-16T06:31:27.197Z,12.97
2023-06-16T06:33:55.397Z,12.53
2023-06-16T06:36:28.075Z,12.40
2023-06-16T06:38:57.867Z,11.93
2023-06-16T06:41:26.811Z,11.60
2023-06-16T06:43:59.512Z,15.87
2023-06-16T06:46:48.704Z,12.90
2023-06-16T06:49:17.627Z,14.73
2023-06-16T06:51:47.070Z,11.83
2023-06-16T06:54:15.085Z,10.60
2023-06-16T06:56:43.202Z,12.80
2023-06-16T06:59:11.301Z,12.37
2023-06-16T07:01:39.438Z,10.03
2023-06-16T07:04:07.695Z,10.00
2023-06-16T07:06:36.319Z,13.53
2023-06-16T07:09:08.631Z,12.67
2023-06-16T07:11:38.654Z,10.73
2023-06-16T07:14:06.706Z,11.63
2023-06-16T07:16:34.804Z,10.60
2023-06-16T07:19:03.816Z,10.43
2023-06-16T07:21:32.106Z,9.23
2023-06-16T07:24:00.920Z,10.33
2023-06-16T07:26:30.420Z,9.07
2023-06-16T07:28:58.835Z,9.77
2023-06-16T07:31:27.070Z,9.07
2023-06-16T07:33:55.114Z,10.97
2023-06-16T07:36:23.275Z,10.63
2023-06-16T07:38:51.424Z,10.93
2023-06-16T07:41:19.398Z,10.17
2023-06-16T07:43:49.629Z,8.80
2023-06-16T07:46:18.425Z,8.57
2023-06-16T07:48:47.462Z,7.70
2023-06-16T07:51:16.952Z,6.97
2023-06-16T07:53:45.019Z,6.80
2023-06-16T07:56:13.040Z,7.93
2023-06-16T07:58:41.215Z,7.80
2023-06-16T08:01:10.674Z,7.80
2023-06-16T08:03:39.340Z,8.13
2023-06-16T08:06:08.008Z,8.80
2023-06-16T08:08:37.016Z,7.40
2023-06-16T08:11:06.793Z,9.07
2023-06-16T08:13:34.981Z,6.77
2023-06-16T08:16:03.044Z,12.07
2023-06-16T08:18:32.371Z,6.60
2023-06-16T08:21:00.452Z,6.10
2023-06-16T08:23:31.155Z,6.37
2023-06-16T08:26:00.998Z,8.23
2023-06-16T08:28:30.463Z,7.90
2023-06-16T08:30:58.630Z,6.50
2023-06-16T08:33:26.594Z,7.10
2023-06-16T08:35:56.082Z,6.27
2023-06-16T08:38:24.312Z,8.07
2023-06-16T08:40:52.573Z,5.80
2023-06-16T08:43:24.003Z,6.90
2023-06-16T08:45:53.801Z,6.27
2023-06-16T08:48:21.810Z,6.10
2023-06-16T08:50:49.863Z,5.70
2023-06-16T08:53:23.669Z,7.87
2023-06-16T08:55:53.019Z,7.87
2023-06-16T08:58:23.020Z,6.93
2023-06-16T09:00:51.913Z,5.43
2023-06-16T09:03:21.140Z,5.87
2023-06-16T09:05:49.989Z,5.77
2023-06-16T09:08:19.373Z,7.03
2023-06-16T09:10:51.080Z,5.00
2023-06-16T09:13:20.183Z,7.63
2023-06-16T09:15:49.194Z,5.03
2023-06-16T09:18:17.982Z,4.93
2023-06-16T09:20:52.125Z,4.87
2023-06-16T09:23:30.774Z,4.30
2023-06-16T09:25:59.093Z,5.20
2023-06-16T09:28:37.667Z,3.87
2023-06-16T09:31:12.356Z,6.13
2023-06-16T09:33:41.387Z,5.70
2023-06-16T09:36:10.336Z,5.90
2023-06-16T09:38:40.136Z,4.00
2023-06-16T09:41:16.674Z,4.60
2023-06-16T09:43:45.329Z,6.03
2023-06-16T09:46:14.165Z,4.83
2023-06-16T09:48:49.537Z,5.23
2023-06-16T09:51:19.436Z,4.30
2023-06-16T09:53:49.813Z,6.37
2023-06-16T09:56:18.603Z,5.13
2023-06-16T09:58:48.082Z,4.43
2023-06-16T10:01:18.196Z,5.47
2023-06-16T10:03:59.913Z,5.47
2023-06-16T10:06:30.181Z,7.17
2023-06-16T10:09:00.963Z,8.03
2023-06-16T10:11:31.711Z,6.10
2023-06-16T10:14:02.867Z,4.67
2023-06-16T10:16:32.708Z,5.10
2023-06-16T10:19:07.149Z,6.27
2023-06-16T10:21:35.310Z,6.33
2023-06-16T10:24:06.130Z,8.30
2023-06-16T10:26:34.876Z,6.57
2023-06-16T10:29:04.282Z,5.37
2023-06-16T10:31:33.025Z,5.47
2023-06-16T10:34:01.405Z,5.93
2023-06-16T10:36:32.729Z,5.03
2023-06-16T10:39:02.759Z,6.90
2023-06-16T10:41:32.354Z,6.10
2023-06-16T10:44:27.609Z,8.53
2023-06-16T10:47:37.593Z,5.77
2023-06-16T10:50:07.341Z,5.73
2023-06-16T10:52:53.274Z,5.37
2023-06-16T10:55:40.489Z,4.90
2023-06-16T10:58:27.721Z,5.67
2023-06-16T11:01:25.178Z,6.43
2023-06-16T11:04:03.430Z,5.70
2023-06-16T11:07:11.473Z,5.53
2023-06-16T11:10:00.667Z,8.57
2023-06-16T11:12:29.514Z,5.47
2023-06-16T11:14:59.234Z,8.20
2023-06-16T11:17:27.427Z,5.37
2023-06-16T11:19:56.433Z,5.77
2023-06-16T11:22:32.096Z,5.63
2023-06-16T11:25:00.943Z,13.53
2023-06-16T11:27:30.176Z,6.00
2023-06-16T11:30:00.673Z,5.83
2023-06-16T11:32:31.101Z,7.53
2023-06-16T11:34:59.643Z,7.07
2023-06-16T11:37:41.485Z,7.97
2023-06-16T11:40:12.502Z,7.53
2023-06-16T11:42:40.585Z,4.73
2023-06-16T11:45:10.859Z,4.43
2023-06-16T11:47:39.945Z,5.17
2023-06-16T11:50:08.772Z,7.83
2023-06-16T11:52:38.282Z,5.43
2023-06-16T11:55:06.893Z,5.17
2023-06-16T11:57:38.574Z,5.93
2023-06-16T12:00:10.844Z,5.97
2023-06-16T12:02:39.804Z,5.57
2023-06-16T12:05:11.673Z,5.13
2023-06-16T12:07:40.281Z,5.57
2023-06-16T12:10:09.828Z,6.43
2023-06-16T12:12:39.826Z,8.03
2023-06-16T12:15:10.518Z,5.00
2023-06-16T12:17:40.571Z,6.30
2023-06-16T12:20:11.816Z,5.17
2023-06-16T12:22:40.208Z,6.57
2023-06-16T12:25:14.366Z,4.73
2023-06-16T12:27:45.875Z,5.00
2023-06-16T12:30:16.192Z,5.87
2023-06-16T12:32:45.109Z,5.53
2023-06-16T12:35:14.106Z,7.63
2023-06-16T12:37:43.657Z,8.53
2023-06-16T12:40:15.641Z,5.23
2023-06-16T12:42:43.851Z,5.63
2023-06-16T12:45:14.644Z,9.07
2023-06-16T12:47:44.231Z,6.53
2023-06-16T12:50:12.648Z,6.57
2023-06-16T12:52:40.700Z,5.50
2023-06-16T12:55:09.720Z,5.17
2023-06-16T12:57:38.136Z,7.53
2023-06-16T13:00:08.566Z,5.60
2023-06-16T13:02:36.665Z,8.57
2023-06-16T13:05:06.410Z,10.47
2023-06-16T13:07:34.441Z,6.50
2023-06-16T13:10:02.448Z,6.57
2023-06-16T13:12:30.492Z,7.30
2023-06-16T13:14:58.470Z,6.73
2023-06-16T13:17:26.647Z,7.47
2023-06-16T13:19:54.747Z,7.00
2023-06-16T13:22:25.049Z,6.80
2023-06-16T13:24:53.056Z,7.57
2023-06-16T13:27:21.051Z,7.23
2023-06-16T13:29:49.113Z,9.77
2023-06-16T13:32:17.193Z,6.70
2023-06-16T13:34:45.311Z,6.43
2023-06-16T13:37:15.115Z,7.00
2023-06-16T13:39:44.785Z,6.77
2023-06-16T13:42:13.276Z,9.93
2023-06-16T13:44:41.433Z,8.90
2023-06-16T13:47:09.523Z,6.37
2023-06-16T13:49:37.546Z,6.37
2023-06-16T13:52:06.224Z,9.23
2023-06-16T13:54:34.248Z,7.67
2023-06-16T13:57:03.612Z,7.17
2023-06-16T13:59:31.622Z,7.63
2023-06-16T14:01:59.664Z,7.10
2023-06-16T14:04:27.683Z,8.80
2023-06-16T14:06:55.679Z,6.90
2023-06-16T14:09:23.639Z,7.40
2023-06-16T14:11:51.650Z,9.70
2023-06-16T14:14:21.980Z,7.00
2023-06-16T14:16:50.079Z,7.30
2023-06-16T14:19:18.125Z,7.57
2023-06-16T14:21:46.225Z,7.23
2023-06-16T14:24:14.366Z,8.03
2023-06-16T14:26:42.394Z,7.83
2023-06-16T14:29:13.357Z,9.60
2023-06-16T14:31:42.722Z,9.97
2023-06-16T14:34:10.753Z,10.37
2023-06-16T14:36:38.788Z,7.03
2023-06-16T14:39:10.217Z,9.07
2023-06-16T14:41:40.795Z,8.87
2023-06-16T14:44:08.855Z,8.93
2023-06-16T14:46:36.911Z,10.13
2023-06-16T14:49:06.571Z,6.70
2023-06-16T14:51:37.828Z,8.90
2023-06-16T14:54:06.079Z,8.57
2023-06-16T14:56:34.090Z,6.90
2023-06-16T14:59:02.115Z,9.67
2023-06-16T15:01:30.195Z,6.83
2023-06-16T15:03:58.581Z,9.67
2023-06-16T15:06:27.964Z,7.00
2023-06-16T15:08:56.309Z,7.87
2023-06-16T15:11:24.306Z,7.27
2023-06-16T15:13:52.898Z,7.97
2023-06-16T15:16:21.025Z,10.30
2023-06-16T15:18:49.088Z,8.47
2023-06-16T15:21:17.128Z,7.60
2023-06-16T15:23:46.855Z,6.67
2023-06-16T15:26:14.931Z,8.67
2023-06-16T15:28:42.913Z,8.80
2023-06-16T15:31:11.125Z,8.07
2023-06-16T15:33:39.276Z,7.77
2023-06-16T15:36:09.305Z,10.07
2023-06-16T15:38:39.188Z,8.27
2023-06-16T15:41:08.611Z,7.50
2023-06-16T15:43:36.590Z,10.67
2023-06-16T15:46:04.621Z,8.37
2023-06-16T15:48:32.898Z,11.60
2023-06-16T15:51:00.905Z,9.93
2023-06-16T15:53:28.912Z,9.93
2023-06-16T15:55:56.913Z,11.90
2023-06-16T15:58:26.247Z,9.87
2023-06-16T16:00:54.298Z,7.60
2023-06-16T16:03:22.567Z,7.97
2023-06-16T16:05:51.178Z,9.37
2023-06-16T16:08:20.228Z,9.90
2023-06-16T16:10:48.976Z,9.73
2023-06-16T16:13:17.008Z,8.87
2023-06-16T16:15:46.425Z,8.37
2023-06-16T16:18:15.839Z,9.43
2023-06-16T16:20:43.838Z,7.17
2023-06-16T16:23:11.942Z,7.13
2023-06-16T16:25:39.969Z,7.83
2023-06-16T16:28:07.923Z,7.30
2023-06-16T16:30:35.919Z,8.87
2023-06-16T16:33:05.838Z,8.53
2023-06-16T16:35:33.923Z,10.67
2023-06-16T16:38:02.496Z,7.73
2023-06-16T16:40:30.510Z,7.37
2023-06-16T16:42:58.843Z,10.77
2023-06-16T16:45:26.836Z,7.43
2023-06-16T16:47:54.897Z,6.63
2023-06-16T16:50:24.292Z,9.00
2023-06-16T16:52:52.251Z,7.37
2023-06-16T16:55:34.572Z,8.83
2023-06-16T16:58:04.312Z,7.57
2023-06-16T17:00:32.827Z,6.43
2023-06-16T17:03:01.051Z,6.97
2023-06-16T17:05:30.696Z,8.10
2023-06-16T17:07:58.859Z,9.57
2023-06-16T17:10:27.049Z,10.70
2023-06-16T17:12:55.070Z,14.73
2023-06-16T17:15:23.398Z,9.77
2023-06-16T17:17:51.429Z,7.17
2023-06-16T17:20:19.768Z,6.73
2023-06-16T17:22:49.432Z,6.47
2023-06-16T17:25:17.416Z,10.70
2023-06-16T17:27:58.591Z,7.10
2023-06-16T17:30:29.086Z,7.30
2023-06-16T17:33:00.867Z,8.80
2023-06-16T17:35:30.319Z,9.03
2023-06-16T17:38:00.612Z,8.07
2023-06-16T17:40:31.417Z,7.23
2023-06-16T17:42:59.414Z,7.73
2023-06-16T17:45:27.472Z,6.17
2023-06-16T17:47:55.536Z,8.43
2023-06-16T17:50:27.477Z,11.17
2023-06-16T17:52:56.652Z,7.77
2023-06-16T17:55:26.292Z,7.20
2023-06-16T17:57:54.318Z,7.97
2023-06-16T18:00:23.109Z,7.73
2023-06-16T18:02:51.426Z,7.63
2023-06-16T18:05:22.030Z,8.50
2023-06-16T18:07:51.521Z,7.67
2023-06-16T18:10:19.971Z,8.10
2023-06-16T18:12:49.668Z,7.63
2023-06-16T18:15:17.746Z,7.00
2023-06-16T18:17:46.682Z,10.13
2023-06-16T18:20:14.846Z,10.57
2023-06-16T18:22:43.005Z,8.40
2023-06-16T18:25:11.156Z,8.63
2023-06-16T18:27:39.163Z,7.43
2023-06-16T18:30:10.066Z,9.80
2023-06-16T18:32:38.093Z,8.90
2023-06-16T18:35:07.350Z,9.17
2023-06-16T18:37:43.728Z,7.80
2023-06-16T18:40:12.641Z,6.40
2023-06-16T18:42:40.715Z,7.97
2023-06-16T18:45:11.156Z,8.80
2023-06-16T18:47:39.611Z,8.33
2023-06-16T18:50:12.605Z,6.17
2023-06-16T18:52:40.778Z,9.50
2023-06-16T18:55:09.330Z,7.77
2023-06-16T18:57:38.239Z,7.90
2023-06-16T19:00:08.828Z,11.20
2023-06-16T19:02:39.057Z,9.50
2023-06-16T19:05:08.679Z,8.57
2023-06-16T19:07:36.706Z,8.90
2023-06-16T19:10:05.156Z,8.33
2023-06-16T19:12:33.606Z,10.20
2023-06-16T19:15:01.769Z,10.07
2023-06-16T19:17:29.899Z,11.30
2023-06-16T19:19:59.300Z,10.83
2023-06-16T19:22:27.268Z,8.90
2023-06-16T19:24:55.257Z,8.50
2023-06-16T19:27:23.490Z,11.20
2023-06-16T19:29:51.526Z,10.67
2023-06-16T19:32:19.702Z,8.60
2023-06-16T19:34:48.194Z,12.47
2023-06-16T19:37:17.608Z,10.97
2023-06-16T19:39:45.660Z,8.70
2023-06-16T19:42:13.752Z,11.17
2023-06-16T19:44:44.001Z,11.83
2023-06-16T19:47:12.237Z,8.63
2023-06-16T19:49:40.573Z,12.83
2023-06-16T19:52:09.732Z,9.30
2023-06-16T19:54:39.144Z,8.37
2023-06-16T19:57:07.757Z,12.83
2023-06-16T19:59:36.040Z,10.37
2023-06-16T20:02:04.208Z,9.83
2023-06-16T20:04:34.523Z,9.73
2023-06-16T20:07:03.318Z,10.83
2023-06-16T20:09:33.948Z,11.63
2023-06-16T20:12:03.593Z,9.73
2023-06-16T20:14:31.826Z,9.77
2023-06-16T20:17:01.947Z,14.93
2023-06-16T20:19:30.353Z,10.77
2023-06-16T20:21:59.493Z,13.27
2023-06-16T20:24:27.673Z,12.37
2023-06-16T20:26:56.191Z,11.13
2023-06-16T20:29:25.662Z,11.80
2023-06-16T20:31:53.680Z,13.37
2023-06-16T20:34:21.651Z,9.37
2023-06-16T20:36:49.729Z,11.93
2023-06-16T20:39:18.136Z,11.77
2023-06-16T20:41:46.271Z,10.77
2023-06-16T20:44:17.846Z,13.17
2023-06-16T20:46:50.042Z,11.73
2023-06-16T20:49:19.089Z,13.17
2023-06-16T20:51:47.130Z,12.40
2023-06-16T20:54:15.304Z,11.27
2023-06-16T20:56:43.377Z,12.20
2023-06-16T20:59:13.076Z,12.57
2023-06-16T21:01:44.193Z,13.30
2023-06-16T21:04:15.047Z,14.23
2023-06-16T21:06:43.310Z,13.60
2023-06-16T21:09:12.936Z,13.90
2023-06-16T21:11:41.327Z,13.27
2023-06-16T21:14:10.557Z,10.50
2023-06-16T21:16:39.049Z,17.93
2023-06-16T21:19:07.311Z,10.93
2023-06-16T21:21:36.836Z,11.50
2023-06-16T21:24:06.679Z,13.73
2023-06-16T21:26:34.857Z,13.50
2023-06-16T21:29:03.888Z,11.10
2023-06-16T21:31:32.003Z,12.70
2023-06-16T21:34:00.115Z,16.30
2023-06-16T21:36:28.348Z,12.30
2023-06-16T21:38:59.330Z,11.60
2023-06-16T21:41:27.439Z,12.93
2023-06-16T21:43:55.597Z,11.93
2023-06-16T21:46:23.848Z,12.87
2023-06-16T21:48:52.312Z,14.47
2023-06-16T21:51:20.422Z,13.43
2023-06-16T21:53:48.565Z,13.30
2023-06-16T21:56:18.721Z,13.10
2023-06-16T21:58:46.892Z,13.50
2023-06-16T22:01:15.062Z,14.47
2023-06-16T22:03:43.219Z,12.93
2023-06-16T22:06:13.167Z,13.97
2023-06-16T22:08:41.298Z,14.37
2023-06-16T22:11:09.315Z,14.67
2023-06-16T22:13:38.849Z,13.63
2023-06-16T22:16:07.487Z,13.10
2023-06-16T22:18:35.590Z,16.20
2023-06-16T22:21:03.970Z,14.07
2023-06-16T22:23:32.082Z,14.40
2023-06-16T22:26:00.156Z,16.30
2023-06-16T22:28:28.314Z,14.20
2023-06-16T22:30:57.935Z,14.80
2023-06-16T22:33:26.154Z,15.60
2023-06-16T22:35:54.238Z,15.87
2023-06-16T22:38:22.519Z,15.73
2023-06-16T22:40:50.637Z,16.20
2023-06-16T22:43:18.768Z,15.50
2023-06-16T22:45:46.825Z,14.73
2023-06-16T22:48:16.451Z,15.00
2023-06-16T22:50:47.918Z,18.63
2023-06-16T22:53:16.200Z,15.77
2023-06-16T22:55:44.344Z,16.83
2023-06-16T22:58:12.424Z,15.37
2023-06-16T23:00:40.565Z,19.73
2023-06-16T23:03:08.721Z,18.87
2023-06-16T23:05:38.192Z,18.63
2023-06-16T23:08:06.642Z,21.10
2023-06-16T23:10:34.783Z,23.10
2023-06-16T23:13:02.885Z,23.30
2023-06-16T23:15:30.962Z,20.80
2023-06-16T23:17:59.015Z,18.20
2023-06-16T23:20:27.143Z,20.10
2023-06-16T23:22:56.537Z,20.07
2023-06-16T23:25:24.561Z,18.73
2023-06-16T23:27:55.330Z,20.37
2023-06-16T23:30:23.925Z,19.00
2023-06-16T23:32:52.224Z,20.97
2023-06-16T23:35:20.792Z,19.40
2023-06-16T23:37:49.110Z,23.67
2023-06-16T23:40:18.902Z,21.30
2023-06-16T23:42:47.142Z,18.37
2023-06-16T23:45:16.618Z,22.87
2023-06-16T23:47:46.341Z,22.80
2023-06-16T23:50:14.450Z,20.87
2023-06-16T23:52:42.457Z,19.80
2023-06-16T23:55:10.854Z,16.67
2023-06-16T23:57:41.477Z,20.70
